createdAt,value
2018-05-25T00:00:11.832Z,15.90
2018-05-25T00:02:41.995Z,15.90
2018-05-25T00:05:12.468Z,15.80
2018-05-25T00:07:43.147Z,15.80
2018-05-25T00:10:13.779Z,15.70
2018-05-25T00:12:43.877Z,15.60
2018-05-25T00:15:13.988Z,15.70
2018-05-25T00:17:44.297Z,15.70
2018-05-25T00:20:14.428Z,15.60
2018-05-25T00:22:45.344Z,15.60
2018-05-25T00:25:16.309Z,15.60
2018-05-25T00:27:47.067Z,15.50
2018-05-25T00:30:17.200Z,15.50
2018-05-25T00:32:47.228Z,15.50
2018-05-25T00:35:17.509Z,15.40
2018-05-25T00:37:48.761Z,15.40
2018-05-25T00:40:19.932Z,15.30
2018-05-25T00:42:50.236Z,15.30
2018-05-25T00:45:20.281Z,15.20
2018-05-25T00:47:50.305Z,15.20
2018-05-25T00:50:21.523Z,15.10
2018-05-25T00:52:51.628Z,15.10
2018-05-25T00:55:32.643Z,15.30
2018-05-25T00:58:02.997Z,15.10
2018-05-25T01:00:34.167Z,15.10
2018-05-25T01:03:04.391Z,15.00
2018-05-25T01:05:34.437Z,15.00
2018-05-25T01:08:05.420Z,15.00
2018-05-25T01:10:35.769Z,15.00
2018-05-25T01:13:05.854Z,14.90
2018-05-25T01:15:36.183Z,15.00
2018-05-25T01:18:06.389Z,14.90
2018-05-25T01:20:36.400Z,15.00
2018-05-25T01:23:06.752Z,15.00
2018-05-25T01:25:36.832Z,15.00
2018-05-25T01:28:07.420Z,15.00
2018-05-25T01:30:38.487Z,14.90
2018-05-25T01:33:08.502Z,14.90
2018-05-25T01:35:38.952Z,14.80
2018-05-25T01:38:09.667Z,14.80
2018-05-25T01:40:40.028Z,14.80
2018-05-25T01:43:10.025Z,14.90
2018-05-25T01:45:40.067Z,14.90
2018-05-25T01:48:10.480Z,14.80
2018-05-25T01:50:41.552Z,14.80
2018-05-25T01:53:11.604Z,14.70
2018-05-25T01:55:42.051Z,14.80
2018-05-25T01:58:12.292Z,14.70
2018-05-25T02:00:43.036Z,14.60
2018-05-25T02:03:13.475Z,14.60
2018-05-25T02:05:43.817Z,14.60
2018-05-25T02:08:15.418Z,14.50
2018-05-25T02:10:45.726Z,14.50
2018-05-25T02:13:15.745Z,14.50
2018-05-25T02:15:46.104Z,14.50
2018-05-25T02:18:16.410Z,14.50
2018-05-25T02:20:47.089Z,14.50
2018-05-25T02:23:17.280Z,14.50
2018-05-25T02:25:48.308Z,14.50
2018-05-25T02:28:18.417Z,14.50
2018-05-25T02:30:49.053Z,14.50
2018-05-25T02:33:20.668Z,14.50
2018-05-25T02:35:50.653Z,14.50
2018-05-25T02:38:21.813Z,14.50
2018-05-25T02:40:52.212Z,14.50
2018-05-25T02:43:22.306Z,14.50
2018-05-25T02:45:52.333Z,14.40
2018-05-25T02:48:22.747Z,14.40
2018-05-25T02:50:53.149Z,14.30
2018-05-25T02:53:23.156Z,14.30
2018-05-25T02:55:53.465Z,14.30
2018-05-25T02:58:23.801Z,14.20
2018-05-25T03:00:53.997Z,14.10
2018-05-25T03:03:24.279Z,14.10
2018-05-25T03:05:54.602Z,14.10
2018-05-25T03:08:24.678Z,14.10
2018-05-25T03:10:54.968Z,14.20
2018-05-25T03:13:26.329Z,14.10
2018-05-25T03:15:57.133Z,14.10
2018-05-25T03:18:27.502Z,14.10
2018-05-25T03:20:58.028Z,14.20
2018-05-25T03:23:28.073Z,14.10
2018-05-25T03:25:58.386Z,14.10
2018-05-25T03:28:29.161Z,14.10
2018-05-25T03:30:59.472Z,14.10
2018-05-25T03:33:29.621Z,14.20
2018-05-25T03:36:00.339Z,14.20
2018-05-25T03:38:30.386Z,14.20
2018-05-25T03:41:00.420Z,14.20
2018-05-25T03:43:30.840Z,14.30
2018-05-25T03:46:01.521Z,14.30
2018-05-25T03:48:31.593Z,14.40
2018-05-25T03:51:01.656Z,14.40
2018-05-25T03:53:31.942Z,14.40
2018-05-25T03:56:02.034Z,14.50
2018-05-25T03:58:41.664Z,14.50
2018-05-25T04:01:22.834Z,14.50
2018-05-25T04:03:53.328Z,14.60
2018-05-25T04:06:23.718Z,14.60
2018-05-25T04:08:53.748Z,14.80
2018-05-25T04:11:23.870Z,14.80
2018-05-25T04:13:54.410Z,14.90
2018-05-25T04:16:24.373Z,14.90
2018-05-25T04:18:55.508Z,15.10
2018-05-25T04:21:25.672Z,15.10
2018-05-25T04:23:55.945Z,15.20
2018-05-25T04:26:26.257Z,15.30
2018-05-25T04:28:56.315Z,15.30
2018-05-25T04:31:26.954Z,15.40
2018-05-25T04:33:57.493Z,15.50
2018-05-25T04:36:27.571Z,15.60
2018-05-25T04:38:58.937Z,15.70
2018-05-25T04:41:29.784Z,15.80
2018-05-25T04:43:59.910Z,15.80
2018-05-25T04:46:30.905Z,15.90
2018-05-25T04:49:00.916Z,15.90
2018-05-25T04:51:31.241Z,16.00
2018-05-25T04:54:01.667Z,16.10
2018-05-25T04:56:31.759Z,16.10
2018-05-25T04:59:03.249Z,16.10
2018-05-25T05:01:35.399Z,16.30
2018-05-25T05:04:08.021Z,16.30
2018-05-25T05:06:38.242Z,16.40
2018-05-25T05:09:09.155Z,16.60
2018-05-25T05:11:39.511Z,16.60
2018-05-25T05:14:09.832Z,16.80
2018-05-25T05:16:39.897Z,16.90
2018-05-25T05:19:10.871Z,16.90
2018-05-25T05:21:42.398Z,17.20
2018-05-25T05:24:12.767Z,17.20
2018-05-25T05:26:42.790Z,17.30
2018-05-25T05:29:13.147Z,17.50
2018-05-25T05:31:43.509Z,17.60
2018-05-25T05:34:14.531Z,17.80
2018-05-25T05:36:44.600Z,17.80
2018-05-25T05:39:14.927Z,17.80
2018-05-25T05:41:44.981Z,18.00
2018-05-25T05:44:15.755Z,18.30
2018-05-25T05:46:46.139Z,18.20
2018-05-25T05:49:16.228Z,18.40
2018-05-25T05:51:46.543Z,18.50
2018-05-25T05:54:17.124Z,18.60
2018-05-25T05:56:47.985Z,18.80
2018-05-25T05:59:18.474Z,18.80
2018-05-25T06:01:48.818Z,18.80
2018-05-25T06:04:19.348Z,18.90
2018-05-25T06:06:50.417Z,19.00
2018-05-25T06:09:20.980Z,19.00
2018-05-25T06:11:51.025Z,19.20
2018-05-25T06:14:21.057Z,19.30
2018-05-25T06:16:51.446Z,19.40
2018-05-25T06:19:21.544Z,19.50
2018-05-25T06:21:51.891Z,19.70
2018-05-25T06:24:23.248Z,19.80
2018-05-25T06:26:53.257Z,19.80
2018-05-25T06:29:24.209Z,19.90
2018-05-25T06:31:54.869Z,20.00
2018-05-25T06:34:26.037Z,20.20
2018-05-25T06:36:56.081Z,20.20
2018-05-25T06:39:26.461Z,20.30
2018-05-25T06:41:56.484Z,20.40
2018-05-25T06:44:26.665Z,20.50
2018-05-25T06:46:57.834Z,20.60
2018-05-25T06:49:28.614Z,20.80
2018-05-25T06:51:59.256Z,20.80
2018-05-25T06:54:30.145Z,20.80
2018-05-25T06:57:00.206Z,20.80
2018-05-25T06:59:30.533Z,20.90
2018-05-25T07:02:01.887Z,21.10
2018-05-25T07:04:33.775Z,21.30
2018-05-25T07:07:04.842Z,21.30
2018-05-25T07:09:35.824Z,21.30
2018-05-25T07:12:05.967Z,21.20
2018-05-25T07:14:37.060Z,21.60
2018-05-25T07:17:07.231Z,21.50
2018-05-25T07:19:37.292Z,21.50
2018-05-25T07:22:07.902Z,21.40
2018-05-25T07:27:50.288Z,21.40
2018-05-25T07:30:20.577Z,21.60
2018-05-25T07:32:50.600Z,21.60
2018-05-25T07:35:20.890Z,21.70
2018-05-25T07:37:52.045Z,21.80
2018-05-25T07:40:22.069Z,21.80
2018-05-25T07:42:52.369Z,21.80
2018-05-25T07:45:22.392Z,21.90
2018-05-25T07:47:53.181Z,22.30
2018-05-25T07:50:24.224Z,22.20
2018-05-25T07:52:54.352Z,22.50
2018-05-25T07:55:24.434Z,22.50
2018-05-25T07:57:54.928Z,22.70
2018-05-25T08:00:25.101Z,22.90
2018-05-25T08:02:55.628Z,23.10
2018-05-25T08:05:25.660Z,23.10
2018-05-25T08:07:56.357Z,23.10
2018-05-25T08:10:26.638Z,23.10
2018-05-25T08:12:57.540Z,23.00
2018-05-25T08:15:27.880Z,23.00
2018-05-25T08:17:58.084Z,22.90
2018-05-25T08:20:28.070Z,23.00
2018-05-25T08:22:58.625Z,22.90
2018-05-25T08:25:28.665Z,23.20
2018-05-25T08:27:58.730Z,23.20
2018-05-25T08:30:29.148Z,23.20
2018-05-25T08:32:59.184Z,23.20
2018-05-25T08:35:29.284Z,23.30
2018-05-25T08:38:00.673Z,23.40
2018-05-25T08:40:30.734Z,23.40
2018-05-25T08:43:01.562Z,23.50
2018-05-25T08:45:31.890Z,23.50
2018-05-25T08:48:02.716Z,23.80
2018-05-25T08:50:33.556Z,23.80
2018-05-25T08:53:04.763Z,24.00
2018-05-25T08:55:34.825Z,23.90
2018-05-25T08:58:05.037Z,24.10
2018-05-25T09:00:36.088Z,24.40
2018-05-25T09:03:07.833Z,24.30
2018-05-25T09:05:37.838Z,24.20
2018-05-25T09:08:08.647Z,24.10
2018-05-25T09:10:38.681Z,24.30
2018-05-25T09:13:08.735Z,24.30
2018-05-25T09:15:39.091Z,24.30
2018-05-25T09:18:09.233Z,24.40
2018-05-25T09:20:39.333Z,24.50
2018-05-25T09:23:10.429Z,24.70
2018-05-25T09:25:40.609Z,24.70
2018-05-25T09:28:10.813Z,24.90
2018-05-25T09:30:41.190Z,24.90
2018-05-25T09:33:12.044Z,24.80
2018-05-25T09:35:42.408Z,24.80
2018-05-25T09:38:12.802Z,25.10
2018-05-25T09:40:43.616Z,25.00
2018-05-25T09:43:13.657Z,25.00
2018-05-25T09:45:44.726Z,25.10
2018-05-25T09:48:14.758Z,25.00
2018-05-25T09:50:44.971Z,25.20
2018-05-25T09:53:15.353Z,25.70
2018-05-25T09:55:55.812Z,25.90
2018-05-25T09:58:27.661Z,25.90
2018-05-25T10:00:57.984Z,25.90
2018-05-25T10:03:28.131Z,25.60
2018-05-25T10:05:59.181Z,26.00
2018-05-25T10:08:29.198Z,26.00
2018-05-25T10:11:00.031Z,25.90
2018-05-25T10:13:31.135Z,26.00
2018-05-25T10:16:01.152Z,26.00
2018-05-25T10:18:31.192Z,26.10
2018-05-25T10:21:02.252Z,25.90
2018-05-25T10:23:32.272Z,25.90
2018-05-25T10:26:03.104Z,26.40
2018-05-25T10:28:34.297Z,26.70
2018-05-25T10:31:04.557Z,26.70
2018-05-25T10:33:35.417Z,26.70
2018-05-25T10:36:05.880Z,26.70
2018-05-25T10:38:35.872Z,26.70
2018-05-25T10:41:06.065Z,27.20
2018-05-25T10:43:36.375Z,27.50
2018-05-25T10:46:06.452Z,27.60
2018-05-25T10:48:37.395Z,27.20
2018-05-25T10:51:07.788Z,27.20
2018-05-25T10:53:38.152Z,27.50
2018-05-25T10:56:08.255Z,27.80
2018-05-25T10:58:38.633Z,28.10
2018-05-25T11:01:09.447Z,28.90
2018-05-25T11:03:39.472Z,28.80
2018-05-25T11:06:09.825Z,29.30
2018-05-25T11:08:40.604Z,29.20
2018-05-25T11:11:12.853Z,29.20
2018-05-25T11:13:43.320Z,29.60
2018-05-25T11:16:13.989Z,30.20
2018-05-25T11:18:44.424Z,30.90
2018-05-25T11:21:15.415Z,31.20
2018-05-25T11:23:45.688Z,30.90
2018-05-25T11:26:16.053Z,30.80
2018-05-25T11:28:46.531Z,30.90
2018-05-25T11:31:16.777Z,30.80
2018-05-25T11:33:47.204Z,30.30
2018-05-25T11:36:17.528Z,30.80
2018-05-25T11:38:47.569Z,31.50
2018-05-25T11:41:18.172Z,30.80
2018-05-25T11:43:48.218Z,30.70
2018-05-25T11:46:18.224Z,31.60
2018-05-25T11:48:48.521Z,32.70
2018-05-25T11:51:18.566Z,32.80
2018-05-25T11:53:49.466Z,33.40
2018-05-25T11:56:20.656Z,30.70
2018-05-25T11:58:50.765Z,30.60
2018-05-25T12:01:20.803Z,30.40
2018-05-25T12:03:51.075Z,30.80
2018-05-25T12:06:22.210Z,30.50
2018-05-25T12:08:52.362Z,30.50
2018-05-25T12:11:22.699Z,30.70
2018-05-25T12:13:52.692Z,31.10
2018-05-25T12:16:24.493Z,30.90
2018-05-25T12:18:55.687Z,29.90
2018-05-25T12:21:25.832Z,29.50
2018-05-25T12:23:56.175Z,29.60
2018-05-25T12:26:26.774Z,29.80
2018-05-25T12:28:56.815Z,29.70
2018-05-25T12:31:26.891Z,30.40
2018-05-25T12:33:57.937Z,31.10
2018-05-25T12:36:28.194Z,31.00
2018-05-25T12:38:58.344Z,31.50
2018-05-25T12:41:29.445Z,33.60
2018-05-25T12:43:59.533Z,33.50
2018-05-25T12:46:30.427Z,31.90
2018-05-25T12:49:00.744Z,31.90
2018-05-25T12:51:30.798Z,30.20
2018-05-25T12:54:01.857Z,29.30
2018-05-25T12:56:32.985Z,29.30
2018-05-25T12:59:03.363Z,29.30
2018-05-25T13:01:33.455Z,29.40
2018-05-25T13:04:03.877Z,30.10
2018-05-25T13:06:34.204Z,30.00
2018-05-25T13:09:06.311Z,31.00
2018-05-25T13:11:36.401Z,31.10
2018-05-25T13:14:06.545Z,30.80
2018-05-25T13:16:36.837Z,30.30
2018-05-25T13:19:06.910Z,29.10
2018-05-25T13:21:36.910Z,28.90
2018-05-25T13:24:07.457Z,29.40
2018-05-25T13:26:38.442Z,31.40
2018-05-25T13:29:08.792Z,31.40
2018-05-25T13:31:39.209Z,31.20
2018-05-25T13:34:09.377Z,31.70
2018-05-25T13:36:39.689Z,31.20
2018-05-25T13:39:09.966Z,31.50
2018-05-25T13:41:40.005Z,31.80
2018-05-25T13:44:10.509Z,31.40
2018-05-25T13:46:40.913Z,31.00
2018-05-25T13:49:11.718Z,30.80
2018-05-25T13:51:41.789Z,30.80
2018-05-25T13:54:12.140Z,31.10
2018-05-25T13:56:42.149Z,31.90
2018-05-25T13:59:12.280Z,31.90
2018-05-25T14:01:42.872Z,32.40
2018-05-25T14:04:13.641Z,33.20
2018-05-25T14:06:43.937Z,33.10
2018-05-25T14:09:14.157Z,33.10
2018-05-25T14:11:44.275Z,32.90
2018-05-25T14:14:15.114Z,31.80
2018-05-25T14:16:45.896Z,31.80
2018-05-25T14:19:18.631Z,33.20
2018-05-25T14:21:51.128Z,32.90
2018-05-25T14:24:21.802Z,32.20
2018-05-25T14:26:51.966Z,32.20
2018-05-25T14:29:22.284Z,31.80
2018-05-25T14:31:52.422Z,32.20
2018-05-25T14:34:23.758Z,31.60
2018-05-25T14:36:54.242Z,30.70
2018-05-25T14:39:25.077Z,30.90
2018-05-25T14:42:08.016Z,30.90
2018-05-25T14:44:38.398Z,31.30
2018-05-25T14:47:14.336Z,31.00
2018-05-25T14:49:44.576Z,30.80
2018-05-25T14:52:14.644Z,31.40
2018-05-25T14:54:45.845Z,33.00
2018-05-25T14:57:15.909Z,33.00
2018-05-25T14:59:46.696Z,33.00
2018-05-25T15:02:17.065Z,32.90
2018-05-25T15:04:47.143Z,32.90
2018-05-25T15:07:17.423Z,32.60
2018-05-25T15:09:47.863Z,31.90
2018-05-25T15:12:17.981Z,31.60
2018-05-25T15:14:48.061Z,30.60
2018-05-25T15:17:18.413Z,29.80
2018-05-25T15:19:49.271Z,29.70
2018-05-25T15:22:20.099Z,30.20
2018-05-25T15:24:51.945Z,29.70
2018-05-25T15:27:22.421Z,29.70
2018-05-25T15:29:52.689Z,30.60
2018-05-25T15:32:23.765Z,30.30
2018-05-25T15:34:53.797Z,30.30
2018-05-25T15:37:24.793Z,30.30
2018-05-25T15:39:55.772Z,29.30
2018-05-25T15:42:25.817Z,29.30
2018-05-25T15:44:56.155Z,29.40
2018-05-25T15:47:26.376Z,29.20
2018-05-25T15:49:56.429Z,29.80
2018-05-25T15:52:26.484Z,30.00
2018-05-25T15:54:56.837Z,30.10
2018-05-25T15:57:26.816Z,30.10
2018-05-25T15:59:56.784Z,29.90
2018-05-25T16:02:27.194Z,30.00
2018-05-25T16:04:58.137Z,30.50
2018-05-25T16:07:28.736Z,30.50
2018-05-25T16:09:59.064Z,30.30
2018-05-25T16:12:29.201Z,30.60
2018-05-25T16:14:59.278Z,29.70
2018-05-25T16:17:30.082Z,29.10
2018-05-25T16:20:00.057Z,29.50
2018-05-25T16:22:30.131Z,29.50
2018-05-25T16:25:00.550Z,29.40
2018-05-25T16:27:30.748Z,29.30
2018-05-25T16:30:00.768Z,30.00
2018-05-25T16:32:31.169Z,30.30
2018-05-25T16:35:01.190Z,31.00
2018-05-25T16:37:31.455Z,31.00
2018-05-25T16:40:02.928Z,31.80
2018-05-25T16:42:33.927Z,31.60
2018-05-25T16:45:04.117Z,30.30
2018-05-25T16:47:34.377Z,29.50
2018-05-25T16:50:04.519Z,28.80
2018-05-25T16:52:35.317Z,27.30
2018-05-25T16:55:05.739Z,27.20
2018-05-25T16:57:35.747Z,27.00
2018-05-25T17:00:07.445Z,26.60
2018-05-25T17:02:37.434Z,26.60
2018-05-25T17:05:07.768Z,25.80
2018-05-25T17:07:38.865Z,25.50
2018-05-25T17:10:08.853Z,25.50
2018-05-25T17:12:39.341Z,25.10
2018-05-25T17:15:09.564Z,25.00
2018-05-25T17:17:39.587Z,24.90
2018-05-25T17:20:11.110Z,24.20
2018-05-25T17:22:41.169Z,24.20
2018-05-25T17:25:11.253Z,24.30
2018-05-25T17:27:41.719Z,24.00
2018-05-25T17:30:12.622Z,24.00
2018-05-25T17:32:42.757Z,24.00
2018-05-25T17:35:12.984Z,23.80
2018-05-25T17:37:43.304Z,23.10
2018-05-25T17:40:13.383Z,23.40
2018-05-25T17:42:43.629Z,23.10
2018-05-25T17:45:13.789Z,22.90
2018-05-25T17:47:43.979Z,22.50
2018-05-25T17:50:14.441Z,22.70
2018-05-25T17:52:45.443Z,22.60
2018-05-25T17:55:15.471Z,22.50
2018-05-25T17:57:46.381Z,22.50
2018-05-25T18:00:16.478Z,22.30
2018-05-25T18:02:46.493Z,22.20
2018-05-25T18:05:17.901Z,22.00
2018-05-25T18:07:48.052Z,22.00
2018-05-25T18:10:18.914Z,21.70
2018-05-25T18:12:49.250Z,21.70
2018-05-25T18:15:20.111Z,21.70
2018-05-25T18:17:50.813Z,21.30
2018-05-25T18:20:21.115Z,21.10
2018-05-25T18:22:51.382Z,21.20
2018-05-25T18:25:21.780Z,21.30
2018-05-25T18:27:53.089Z,21.30
2018-05-25T18:30:23.317Z,21.00
2018-05-25T18:32:54.288Z,21.00
2018-05-25T18:35:25.956Z,21.00
2018-05-25T18:37:56.338Z,21.00
2018-05-25T18:40:27.490Z,21.30
2018-05-25T18:42:58.385Z,21.40
2018-05-25T18:45:29.558Z,21.40
2018-05-25T18:47:59.893Z,21.50
2018-05-25T18:50:30.813Z,21.80
2018-05-25T18:53:01.186Z,21.80
2018-05-25T18:55:31.600Z,21.50
2018-05-25T18:58:01.794Z,21.50
2018-05-25T19:00:32.589Z,21.80
2018-05-25T19:03:02.903Z,21.80
2018-05-25T19:05:33.177Z,22.00
2018-05-25T19:08:04.195Z,21.30
2018-05-25T19:10:34.560Z,21.30
2018-05-25T19:13:04.958Z,21.20
2018-05-25T19:15:34.968Z,20.70
2018-05-25T19:18:05.603Z,20.50
2018-05-25T19:20:35.757Z,20.30
2018-05-25T19:23:06.412Z,19.90
2018-05-25T19:25:36.713Z,19.70
2018-05-25T19:28:07.738Z,19.40
2018-05-25T19:30:37.838Z,19.30
2018-05-25T19:33:08.256Z,19.20
2018-05-25T19:35:38.280Z,19.20
2018-05-25T19:38:08.388Z,19.10
2018-05-25T19:40:38.753Z,19.10
2018-05-25T19:43:08.833Z,18.90
2018-05-25T19:45:39.694Z,18.70
2018-05-25T19:48:10.807Z,18.60
2018-05-25T19:50:41.091Z,18.60
2018-05-25T19:53:11.333Z,18.50
2018-05-25T19:55:41.776Z,18.40
2018-05-25T19:58:11.937Z,18.30
2018-05-25T20:00:42.084Z,18.20
2018-05-25T20:03:12.452Z,18.10
2018-05-25T20:05:42.515Z,18.00
2018-05-25T20:08:12.653Z,17.90
2018-05-25T20:10:43.033Z,17.80
2018-05-25T20:13:13.087Z,17.70
2018-05-25T20:15:43.132Z,17.60
2018-05-25T20:18:13.600Z,17.60
2018-05-25T20:20:44.439Z,17.50
2018-05-25T20:23:14.566Z,17.50
2018-05-25T20:25:44.931Z,17.40
2018-05-25T20:28:15.755Z,17.20
2018-05-25T20:30:45.896Z,17.20
2018-05-25T20:33:16.377Z,17.10
2018-05-25T20:35:46.798Z,17.00
2018-05-25T20:38:16.894Z,17.00
2018-05-25T20:40:48.921Z,17.00
2018-05-25T20:43:19.119Z,17.00
2018-05-25T20:45:49.416Z,16.90
2018-05-25T20:48:20.568Z,16.70
2018-05-25T20:50:50.660Z,16.70
2018-05-25T20:53:20.991Z,16.60
2018-05-25T20:55:51.178Z,16.50
2018-05-25T20:58:21.380Z,16.60
2018-05-25T21:00:51.876Z,16.50
2018-05-25T21:03:21.976Z,16.40
2018-05-25T21:05:54.166Z,16.30
2018-05-25T21:08:24.649Z,16.40
2018-05-25T21:10:54.755Z,16.40
2018-05-25T21:13:24.901Z,16.30
2018-05-25T21:15:55.460Z,16.30
2018-05-25T21:18:25.809Z,16.30
2018-05-25T21:20:55.984Z,16.30
2018-05-25T21:23:26.384Z,16.10
2018-05-25T21:25:56.891Z,16.10
2018-05-25T21:28:26.983Z,16.00
2018-05-25T21:30:57.470Z,15.90
2018-05-25T21:33:27.931Z,15.90
2018-05-25T21:35:58.052Z,15.90
2018-05-25T21:38:28.398Z,15.80
2018-05-25T21:40:58.459Z,15.70
2018-05-25T21:43:28.902Z,15.70
2018-05-25T21:46:00.015Z,15.60
2018-05-25T21:48:30.093Z,15.60
2018-05-25T21:51:00.414Z,15.60
2018-05-25T21:53:30.882Z,15.50
2018-05-25T21:56:02.147Z,15.40
2018-05-25T21:58:32.230Z,15.40
2018-05-25T22:01:03.320Z,15.30
2018-05-25T22:03:34.576Z,15.20
2018-05-25T22:06:04.821Z,15.20
2018-05-25T22:08:36.133Z,15.00
2018-05-25T22:11:07.123Z,15.00
2018-05-25T22:13:38.216Z,14.90
2018-05-25T22:16:08.310Z,14.80
2018-05-25T22:18:38.316Z,14.80
2018-05-25T22:21:08.645Z,14.70
2018-05-25T22:23:38.681Z,14.60
2018-05-25T22:26:09.468Z,14.60
2018-05-25T22:28:41.591Z,14.50
2018-05-25T22:31:11.616Z,14.50
2018-05-25T22:33:42.161Z,14.50
2018-05-25T22:36:12.597Z,14.40
2018-05-25T22:38:42.713Z,14.50
2018-05-25T22:41:12.685Z,14.40
2018-05-25T22:43:54.467Z,14.30
2018-05-25T22:46:41.247Z,14.30
2018-05-25T22:49:28.119Z,14.30
2018-05-25T22:52:18.940Z,14.20
2018-05-25T22:54:52.746Z,14.20
2018-05-25T22:57:23.165Z,14.20
2018-05-25T22:59:53.478Z,14.00
2018-05-25T23:02:24.428Z,14.00
2018-05-25T23:04:54.484Z,14.00
2018-05-25T23:07:25.572Z,13.90
2018-05-25T23:09:55.665Z,13.90
2018-05-25T23:12:25.676Z,13.90
2018-05-25T23:14:55.951Z,13.90
2018-05-25T23:17:26.292Z,13.90
2018-05-25T23:19:56.342Z,13.90
2018-05-25T23:22:26.600Z,13.80
2018-05-25T23:24:58.401Z,13.80
2018-05-25T23:27:29.737Z,13.70
2018-05-25T23:30:00.052Z,13.70
2018-05-25T23:32:30.075Z,13.80
2018-05-25T23:35:00.133Z,13.80
2018-05-25T23:37:30.841Z,13.80
2018-05-25T23:40:00.956Z,13.70
2018-05-25T23:42:32.036Z,13.70
2018-05-25T23:45:02.359Z,13.70
2018-05-25T23:47:32.569Z,13.70
2018-05-25T23:50:03.322Z,13.70
2018-05-25T23:52:33.763Z,13.80
2018-05-25T23:55:03.815Z,13.60
2018-05-25T23:57:34.998Z,13.60
